sensor_id;sensor_type;location;lat;lon;timestamp;P1;durP1;ratioP1;P2;durP2;ratioP2
69890;SDS011;57170;43.964;21.262;2023-05-14T00:01:12;14.18;;;9.48;;
69890;SDS011;57170;43.964;21.262;2023-05-14T00:03:38;12.05;;;8.70;;
69890;SDS011;57170;43.964;21.262;2023-05-14T00:06:05;9.48;;;8.52;;
69890;SDS011;57170;43.964;21.262;2023-05-14T00:08:32;12.52;;;8.27;;
69890;SDS011;57170;43.964;21.262;2023-05-14T00:10:58;9.82;;;8.20;;
69890;SDS011;57170;43.964;21.262;2023-05-14T00:13:24;8.77;;;7.97;;
69890;SDS011;57170;43.964;21.262;2023-05-14T00:15:51;10.05;;;8.77;;
69890;SDS011;57170;43.964;21.262;2023-05-14T00:18:17;11.25;;;8.85;;
69890;SDS011;57170;43.964;21.262;2023-05-14T00:20:43;10.18;;;9.18;;
69890;SDS011;57170;43.964;21.262;2023-05-14T00:23:09;13.40;;;8.60;;
69890;SDS011;57170;43.964;21.262;2023-05-14T00:25:35;12.65;;;9.07;;
69890;SDS011;57170;43.964;21.262;2023-05-14T00:28:02;10.73;;;8.48;;
69890;SDS011;57170;43.964;21.262;2023-05-14T00:30:28;10.75;;;7.90;;
69890;SDS011;57170;43.964;21.262;2023-05-14T00:32:54;10.90;;;8.25;;
69890;SDS011;57170;43.964;21.262;2023-05-14T00:35:20;10.15;;;9.07;;
69890;SDS011;57170;43.964;21.262;2023-05-14T00:37:46;12.18;;;8.23;;
69890;SDS011;57170;43.964;21.262;2023-05-14T00:40:13;10.25;;;8.40;;
69890;SDS011;57170;43.964;21.262;2023-05-14T00:42:39;12.00;;;8.35;;
69890;SDS011;57170;43.964;21.262;2023-05-14T00:45:05;10.05;;;7.65;;
69890;SDS011;57170;43.964;21.262;2023-05-14T00:47:32;11.95;;;8.38;;
69890;SDS011;57170;43.964;21.262;2023-05-14T00:50:01;10.20;;;7.63;;
69890;SDS011;57170;43.964;21.262;2023-05-14T00:52:27;10.43;;;8.77;;
69890;SDS011;57170;43.964;21.262;2023-05-14T00:54:53;10.27;;;8.32;;
69890;SDS011;57170;43.964;21.262;2023-05-14T00:57:19;9.77;;;8.77;;
69890;SDS011;57170;43.964;21.262;2023-05-14T00:59:46;16.80;;;9.10;;
69890;SDS011;57170;43.964;21.262;2023-05-14T01:02:12;12.02;;;8.65;;
69890;SDS011;57170;43.964;21.262;2023-05-14T01:04:38;12.57;;;8.55;;
69890;SDS011;57170;43.964;21.262;2023-05-14T01:17:17;9.20;;;8.20;;
69890;SDS011;57170;43.964;21.262;2023-05-14T01:19:46;9.82;;;8.30;;
69890;SDS011;57170;43.964;21.262;2023-05-14T01:22:12;12.15;;;8.52;;
69890;SDS011;57170;43.964;21.262;2023-05-14T01:24:38;10.43;;;7.78;;
69890;SDS011;57170;43.964;21.262;2023-05-14T01:29:44;10.68;;;7.07;;
69890;SDS011;57170;43.964;21.262;2023-05-14T01:32:15;9.23;;;7.82;;
69890;SDS011;57170;43.964;21.262;2023-05-14T01:34:42;8.75;;;6.47;;
69890;SDS011;57170;43.964;21.262;2023-05-14T01:37:08;13.02;;;6.38;;
69890;SDS011;57170;43.964;21.262;2023-05-14T01:39:35;7.78;;;6.70;;
69890;SDS011;57170;43.964;21.262;2023-05-14T01:42:02;9.20;;;6.55;;
69890;SDS011;57170;43.964;21.262;2023-05-14T01:44:29;9.02;;;6.13;;
69890;SDS011;57170;43.964;21.262;2023-05-14T01:46:55;8.68;;;6.30;;
69890;SDS011;57170;43.964;21.262;2023-05-14T01:49:21;7.68;;;6.00;;
69890;SDS011;57170;43.964;21.262;2023-05-14T01:51:48;10.88;;;6.35;;
69890;SDS011;57170;43.964;21.262;2023-05-14T01:54:14;9.40;;;7.20;;
69890;SDS011;57170;43.964;21.262;2023-05-14T01:56:40;8.52;;;6.43;;
69890;SDS011;57170;43.964;21.262;2023-05-14T01:59:06;9.57;;;6.70;;
69890;SDS011;57170;43.964;21.262;2023-05-14T02:01:32;8.20;;;5.90;;
69890;SDS011;57170;43.964;21.262;2023-05-14T02:03:58;10.02;;;6.15;;
69890;SDS011;57170;43.964;21.262;2023-05-14T02:06:25;8.30;;;5.78;;
69890;SDS011;57170;43.964;21.262;2023-05-14T02:08:51;7.43;;;6.50;;
69890;SDS011;57170;43.964;21.262;2023-05-14T02:11:17;9.30;;;6.35;;
69890;SDS011;57170;43.964;21.262;2023-05-14T02:13:43;10.90;;;6.32;;
69890;SDS011;57170;43.964;21.262;2023-05-14T02:16:09;8.77;;;6.22;;
69890;SDS011;57170;43.964;21.262;2023-05-14T02:18:35;8.73;;;6.95;;
69890;SDS011;57170;43.964;21.262;2023-05-14T02:21:02;9.43;;;6.13;;
69890;SDS011;57170;43.964;21.262;2023-05-14T02:23:28;12.43;;;6.22;;
69890;SDS011;57170;43.964;21.262;2023-05-14T02:25:54;10.30;;;6.25;;
69890;SDS011;57170;43.964;21.262;2023-05-14T02:28:20;10.27;;;5.90;;
69890;SDS011;57170;43.964;21.262;2023-05-14T02:30:46;8.77;;;6.35;;
69890;SDS011;57170;43.964;21.262;2023-05-14T02:33:12;9.20;;;5.65;;
69890;SDS011;57170;43.964;21.262;2023-05-14T02:35:38;7.35;;;5.15;;
69890;SDS011;57170;43.964;21.262;2023-05-14T02:38:04;7.95;;;6.10;;
69890;SDS011;57170;43.964;21.262;2023-05-14T02:40:30;7.45;;;5.47;;
69890;SDS011;57170;43.964;21.262;2023-05-14T02:42:56;9.57;;;5.50;;
69890;SDS011;57170;43.964;21.262;2023-05-14T02:45:22;10.38;;;6.05;;
69890;SDS011;57170;43.964;21.262;2023-05-14T02:47:49;8.02;;;5.50;;
69890;SDS011;57170;43.964;21.262;2023-05-14T02:50:15;9.00;;;5.97;;
69890;SDS011;57170;43.964;21.262;2023-05-14T02:52:41;10.30;;;5.53;;
69890;SDS011;57170;43.964;21.262;2023-05-14T02:55:07;6.13;;;5.32;;
69890;SDS011;57170;43.964;21.262;2023-05-14T02:57:33;10.02;;;5.70;;
69890;SDS011;57170;43.964;21.262;2023-05-14T03:00:00;9.50;;;6.38;;
69890;SDS011;57170;43.964;21.262;2023-05-14T03:02:26;12.02;;;6.60;;
69890;SDS011;57170;43.964;21.262;2023-05-14T03:04:52;12.05;;;6.00;;
69890;SDS011;57170;43.964;21.262;2023-05-14T03:07:18;7.15;;;5.22;;
69890;SDS011;57170;43.964;21.262;2023-05-14T03:09:44;8.15;;;5.10;;
69890;SDS011;57170;43.964;21.262;2023-05-14T03:12:10;7.65;;;5.60;;
69890;SDS011;57170;43.964;21.262;2023-05-14T03:14:38;8.02;;;5.82;;
69890;SDS011;57170;43.964;21.262;2023-05-14T03:17:04;10.15;;;6.25;;
69890;SDS011;57170;43.964;21.262;2023-05-14T03:19:30;8.57;;;5.60;;
69890;SDS011;57170;43.964;21.262;2023-05-14T03:21:56;12.45;;;6.13;;
69890;SDS011;57170;43.964;21.262;2023-05-14T03:24:22;7.75;;;6.18;;
69890;SDS011;57170;43.964;21.262;2023-05-14T03:26:49;10.77;;;7.07;;
69890;SDS011;57170;43.964;21.262;2023-05-14T03:29:15;9.32;;;6.30;;
69890;SDS011;57170;43.964;21.262;2023-05-14T03:31:42;10.32;;;7.07;;
69890;SDS011;57170;43.964;21.262;2023-05-14T03:34:08;11.80;;;6.70;;
69890;SDS011;57170;43.964;21.262;2023-05-14T03:36:34;9.55;;;7.22;;
69890;SDS011;57170;43.964;21.262;2023-05-14T03:39:02;9.52;;;7.22;;
69890;SDS011;57170;43.964;21.262;2023-05-14T03:41:30;17.55;;;7.07;;
69890;SDS011;57170;43.964;21.262;2023-05-14T03:43:57;9.20;;;7.32;;
69890;SDS011;57170;43.964;21.262;2023-05-14T03:46:23;9.27;;;7.82;;
69890;SDS011;57170;43.964;21.262;2023-05-14T03:48:49;8.43;;;6.55;;
69890;SDS011;57170;43.964;21.262;2023-05-14T03:51:15;12.55;;;7.95;;
69890;SDS011;57170;43.964;21.262;2023-05-14T03:53:41;9.77;;;7.60;;
69890;SDS011;57170;43.964;21.262;2023-05-14T03:56:07;8.90;;;7.30;;
69890;SDS011;57170;43.964;21.262;2023-05-14T03:58:33;10.48;;;7.50;;
69890;SDS011;57170;43.964;21.262;2023-05-14T04:00:59;12.93;;;7.63;;
69890;SDS011;57170;43.964;21.262;2023-05-14T04:03:25;11.18;;;8.05;;
69890;SDS011;57170;43.964;21.262;2023-05-14T04:05:51;10.40;;;6.72;;
69890;SDS011;57170;43.964;21.262;2023-05-14T04:08:17;9.00;;;7.50;;
69890;SDS011;57170;43.964;21.262;2023-05-14T04:10:44;9.65;;;7.65;;
69890;SDS011;57170;43.964;21.262;2023-05-14T04:13:10;8.68;;;6.75;;
69890;SDS011;57170;43.964;21.262;2023-05-14T04:15:36;10.27;;;7.88;;
69890;SDS011;57170;43.964;21.262;2023-05-14T04:18:03;8.07;;;6.57;;
69890;SDS011;57170;43.964;21.262;2023-05-14T04:20:30;12.13;;;7.28;;
69890;SDS011;57170;43.964;21.262;2023-05-14T04:22:56;8.88;;;7.72;;
69890;SDS011;57170;43.964;21.262;2023-05-14T04:25:22;10.95;;;8.50;;
69890;SDS011;57170;43.964;21.262;2023-05-14T04:27:48;8.25;;;7.45;;
69890;SDS011;57170;43.964;21.262;2023-05-14T04:30:14;11.10;;;8.75;;
69890;SDS011;57170;43.964;21.262;2023-05-14T04:32:40;11.82;;;8.80;;
69890;SDS011;57170;43.964;21.262;2023-05-14T04:35:07;9.15;;;7.68;;
69890;SDS011;57170;43.964;21.262;2023-05-14T04:37:34;10.13;;;9.10;;
69890;SDS011;57170;43.964;21.262;2023-05-14T04:40:00;10.05;;;9.00;;
69890;SDS011;57170;43.964;21.262;2023-05-14T04:42:26;10.75;;;8.90;;
69890;SDS011;57170;43.964;21.262;2023-05-14T04:44:52;9.75;;;7.47;;
69890;SDS011;57170;43.964;21.262;2023-05-14T04:47:18;9.73;;;7.35;;
69890;SDS011;57170;43.964;21.262;2023-05-14T04:49:45;10.52;;;8.35;;
69890;SDS011;57170;43.964;21.262;2023-05-14T04:52:11;9.60;;;7.55;;
69890;SDS011;57170;43.964;21.262;2023-05-14T04:54:37;10.18;;;7.30;;
69890;SDS011;57170;43.964;21.262;2023-05-14T04:57:03;9.90;;;8.07;;
69890;SDS011;57170;43.964;21.262;2023-05-14T04:59:29;9.02;;;7.30;;
69890;SDS011;57170;43.964;21.262;2023-05-14T05:01:56;9.02;;;8.02;;
69890;SDS011;57170;43.964;21.262;2023-05-14T05:04:22;10.18;;;7.78;;
69890;SDS011;57170;43.964;21.262;2023-05-14T05:06:49;10.07;;;7.28;;
69890;SDS011;57170;43.964;21.262;2023-05-14T05:09:16;11.75;;;7.72;;
69890;SDS011;57170;43.964;21.262;2023-05-14T05:11:42;8.70;;;7.13;;
69890;SDS011;57170;43.964;21.262;2023-05-14T05:14:08;9.80;;;8.18;;
69890;SDS011;57170;43.964;21.262;2023-05-14T05:16:35;11.48;;;7.72;;
69890;SDS011;57170;43.964;21.262;2023-05-14T05:19:01;9.45;;;7.60;;
69890;SDS011;57170;43.964;21.262;2023-05-14T05:21:27;9.25;;;7.82;;
69890;SDS011;57170;43.964;21.262;2023-05-14T05:23:53;9.07;;;7.05;;
69890;SDS011;57170;43.964;21.262;2023-05-14T05:26:19;10.93;;;6.72;;
69890;SDS011;57170;43.964;21.262;2023-05-14T05:28:46;8.25;;;6.88;;
69890;SDS011;57170;43.964;21.262;2023-05-14T05:31:12;10.75;;;7.97;;
69890;SDS011;57170;43.964;21.262;2023-05-14T05:33:38;9.15;;;7.43;;
69890;SDS011;57170;43.964;21.262;2023-05-14T05:36:05;9.63;;;7.25;;
69890;SDS011;57170;43.964;21.262;2023-05-14T05:38:31;8.57;;;6.95;;
69890;SDS011;57170;43.964;21.262;2023-05-14T05:40:57;7.68;;;6.50;;
69890;SDS011;57170;43.964;21.262;2023-05-14T05:43:23;7.45;;;6.28;;
69890;SDS011;57170;43.964;21.262;2023-05-14T05:45:49;12.55;;;7.72;;
69890;SDS011;57170;43.964;21.262;2023-05-14T05:48:15;10.30;;;8.43;;
69890;SDS011;57170;43.964;21.262;2023-05-14T05:50:42;8.90;;;6.93;;
69890;SDS011;57170;43.964;21.262;2023-05-14T05:53:08;8.68;;;6.47;;
69890;SDS011;57170;43.964;21.262;2023-05-14T05:55:34;10.18;;;6.78;;
69890;SDS011;57170;43.964;21.262;2023-05-14T05:58:01;8.75;;;6.95;;
69890;SDS011;57170;43.964;21.262;2023-05-14T06:00:27;8.98;;;6.93;;
69890;SDS011;57170;43.964;21.262;2023-05-14T06:02:53;7.50;;;6.28;;
69890;SDS011;57170;43.964;21.262;2023-05-14T06:05:20;9.13;;;7.25;;
69890;SDS011;57170;43.964;21.262;2023-05-14T06:07:46;8.20;;;7.25;;
69890;SDS011;57170;43.964;21.262;2023-05-14T06:10:12;7.20;;;6.07;;
69890;SDS011;57170;43.964;21.262;2023-05-14T06:12:38;8.52;;;6.65;;
69890;SDS011;57170;43.964;21.262;2023-05-14T06:15:05;9.50;;;6.80;;
69890;SDS011;57170;43.964;21.262;2023-05-14T06:17:31;8.75;;;7.30;;
69890;SDS011;57170;43.964;21.262;2023-05-14T06:19:57;11.95;;;8.00;;
69890;SDS011;57170;43.964;21.262;2023-05-14T06:22:23;8.52;;;7.63;;
69890;SDS011;57170;43.964;21.262;2023-05-14T06:24:49;9.68;;;7.70;;
69890;SDS011;57170;43.964;21.262;2023-05-14T06:27:15;9.35;;;7.10;;
69890;SDS011;57170;43.964;21.262;2023-05-14T06:29:41;10.38;;;8.02;;
69890;SDS011;57170;43.964;21.262;2023-05-14T06:32:07;9.45;;;7.20;;
69890;SDS011;57170;43.964;21.262;2023-05-14T06:34:34;10.45;;;7.35;;
69890;SDS011;57170;43.964;21.262;2023-05-14T06:37:00;9.23;;;7.80;;
69890;SDS011;57170;43.964;21.262;2023-05-14T06:39:28;8.55;;;7.22;;
69890;SDS011;57170;43.964;21.262;2023-05-14T06:41:54;9.73;;;7.00;;
69890;SDS011;57170;43.964;21.262;2023-05-14T06:44:20;9.70;;;7.53;;
69890;SDS011;57170;43.964;21.262;2023-05-14T06:46:46;7.95;;;6.80;;
69890;SDS011;57170;43.964;21.262;2023-05-14T06:49:12;8.52;;;6.50;;
69890;SDS011;57170;43.964;21.262;2023-05-14T06:51:38;7.65;;;6.57;;
69890;SDS011;57170;43.964;21.262;2023-05-14T06:54:05;8.38;;;6.80;;
69890;SDS011;57170;43.964;21.262;2023-05-14T06:56:32;8.95;;;7.25;;
69890;SDS011;57170;43.964;21.262;2023-05-14T06:58:58;9.45;;;7.68;;
69890;SDS011;57170;43.964;21.262;2023-05-14T07:01:24;8.57;;;7.45;;
69890;SDS011;57170;43.964;21.262;2023-05-14T07:03:50;10.05;;;8.13;;
69890;SDS011;57170;43.964;21.262;2023-05-14T07:06:16;12.73;;;7.72;;
69890;SDS011;57170;43.964;21.262;2023-05-14T07:08:42;9.55;;;8.02;;
69890;SDS011;57170;43.964;21.262;2023-05-14T07:11:11;8.90;;;8.00;;
69890;SDS011;57170;43.964;21.262;2023-05-14T07:13:38;11.10;;;8.73;;
69890;SDS011;57170;43.964;21.262;2023-05-14T07:16:05;9.80;;;6.82;;
69890;SDS011;57170;43.964;21.262;2023-05-14T07:18:31;8.32;;;7.43;;
69890;SDS011;57170;43.964;21.262;2023-05-14T07:20:57;7.95;;;6.90;;
69890;SDS011;57170;43.964;21.262;2023-05-14T07:23:23;8.38;;;7.00;;
69890;SDS011;57170;43.964;21.262;2023-05-14T07:25:49;8.43;;;6.97;;
69890;SDS011;57170;43.964;21.262;2023-05-14T07:28:15;7.93;;;6.93;;
69890;SDS011;57170;43.964;21.262;2023-05-14T07:30:42;9.50;;;7.28;;
69890;SDS011;57170;43.964;21.262;2023-05-14T07:33:08;8.50;;;7.47;;
69890;SDS011;57170;43.964;21.262;2023-05-14T07:35:34;9.80;;;6.80;;
69890;SDS011;57170;43.964;21.262;2023-05-14T07:38:00;8.55;;;6.90;;
69890;SDS011;57170;43.964;21.262;2023-05-14T07:40:27;7.25;;;5.90;;
69890;SDS011;57170;43.964;21.262;2023-05-14T07:42:53;6.55;;;5.82;;
69890;SDS011;57170;43.964;21.262;2023-05-14T07:45:19;8.38;;;7.22;;
69890;SDS011;57170;43.964;21.262;2023-05-14T07:47:45;6.20;;;5.60;;
69890;SDS011;57170;43.964;21.262;2023-05-14T07:50:15;10.45;;;7.80;;
69890;SDS011;57170;43.964;21.262;2023-05-14T07:52:42;9.43;;;7.18;;
69890;SDS011;57170;43.964;21.262;2023-05-14T07:55:08;11.70;;;7.55;;
69890;SDS011;57170;43.964;21.262;2023-05-14T07:57:34;11.45;;;6.38;;
69890;SDS011;57170;43.964;21.262;2023-05-14T08:00:01;7.57;;;6.13;;
69890;SDS011;57170;43.964;21.262;2023-05-14T08:02:28;7.00;;;6.28;;
69890;SDS011;57170;43.964;21.262;2023-05-14T08:04:54;6.97;;;6.25;;
69890;SDS011;57170;43.964;21.262;2023-05-14T08:07:20;8.02;;;6.30;;
69890;SDS011;57170;43.964;21.262;2023-05-14T08:09:46;8.30;;;5.80;;
69890;SDS011;57170;43.964;21.262;2023-05-14T08:12:12;7.28;;;5.72;;
69890;SDS011;57170;43.964;21.262;2023-05-14T08:14:39;6.35;;;5.45;;
69890;SDS011;57170;43.964;21.262;2023-05-14T08:17:05;10.38;;;5.95;;
69890;SDS011;57170;43.964;21.262;2023-05-14T08:19:31;9.60;;;7.32;;
69890;SDS011;57170;43.964;21.262;2023-05-14T08:21:57;6.57;;;5.63;;
69890;SDS011;57170;43.964;21.262;2023-05-14T08:24:23;9.02;;;6.65;;
69890;SDS011;57170;43.964;21.262;2023-05-14T08:26:49;6.88;;;6.15;;
69890;SDS011;57170;43.964;21.262;2023-05-14T08:29:16;8.70;;;6.60;;
69890;SDS011;57170;43.964;21.262;2023-05-14T08:31:42;6.75;;;5.90;;
69890;SDS011;57170;43.964;21.262;2023-05-14T08:34:08;8.23;;;6.43;;
69890;SDS011;57170;43.964;21.262;2023-05-14T08:36:34;7.13;;;6.43;;
69890;SDS011;57170;43.964;21.262;2023-05-14T08:39:00;6.40;;;5.75;;
69890;SDS011;57170;43.964;21.262;2023-05-14T08:41:27;6.85;;;5.47;;
69890;SDS011;57170;43.964;21.262;2023-05-14T08:46:20;7.75;;;5.18;;
69890;SDS011;57170;43.964;21.262;2023-05-14T08:48:49;8.50;;;6.03;;
69890;SDS011;57170;43.964;21.262;2023-05-14T08:51:17;7.05;;;5.68;;
69890;SDS011;57170;43.964;21.262;2023-05-14T08:53:44;6.53;;;5.05;;
69890;SDS011;57170;43.964;21.262;2023-05-14T08:56:10;6.55;;;5.43;;
69890;SDS011;57170;43.964;21.262;2023-05-14T08:58:37;9.13;;;5.07;;
69890;SDS011;57170;43.964;21.262;2023-05-14T09:01:03;6.57;;;4.55;;
69890;SDS011;57170;43.964;21.262;2023-05-14T09:03:29;4.75;;;4.28;;
69890;SDS011;57170;43.964;21.262;2023-05-14T09:05:56;5.75;;;4.45;;
69890;SDS011;57170;43.964;21.262;2023-05-14T09:08:22;5.13;;;4.18;;
69890;SDS011;57170;43.964;21.262;2023-05-14T09:10:48;6.60;;;3.83;;
69890;SDS011;57170;43.964;21.262;2023-05-14T09:13:15;7.00;;;4.13;;
69890;SDS011;57170;43.964;21.262;2023-05-14T09:15:41;5.40;;;4.05;;
69890;SDS011;57170;43.964;21.262;2023-05-14T09:18:07;4.47;;;3.47;;
69890;SDS011;57170;43.964;21.262;2023-05-14T09:20:33;5.25;;;4.32;;
69890;SDS011;57170;43.964;21.262;2023-05-14T09:22:59;4.85;;;4.28;;
69890;SDS011;57170;43.964;21.262;2023-05-14T09:25:26;4.70;;;4.15;;
69890;SDS011;57170;43.964;21.262;2023-05-14T09:27:52;4.70;;;4.05;;
69890;SDS011;57170;43.964;21.262;2023-05-14T09:30:19;5.20;;;4.38;;
69890;SDS011;57170;43.964;21.262;2023-05-14T09:32:45;5.55;;;4.30;;
69890;SDS011;57170;43.964;21.262;2023-05-14T09:35:14;6.70;;;4.68;;
69890;SDS011;57170;43.964;21.262;2023-05-14T09:37:41;5.20;;;3.97;;
69890;SDS011;57170;43.964;21.262;2023-05-14T09:40:08;7.13;;;4.75;;
69890;SDS011;57170;43.964;21.262;2023-05-14T09:42:34;6.82;;;4.25;;
69890;SDS011;57170;43.964;21.262;2023-05-14T09:45:00;5.60;;;4.78;;
69890;SDS011;57170;43.964;21.262;2023-05-14T09:47:28;5.50;;;4.80;;
69890;SDS011;57170;43.964;21.262;2023-05-14T09:49:55;6.15;;;4.20;;
69890;SDS011;57170;43.964;21.262;2023-05-14T09:52:24;5.70;;;4.30;;
69890;SDS011;57170;43.964;21.262;2023-05-14T09:54:51;5.35;;;4.43;;
69890;SDS011;57170;43.964;21.262;2023-05-14T09:57:17;5.88;;;4.60;;
69890;SDS011;57170;43.964;21.262;2023-05-14T09:59:43;4.35;;;3.78;;
69890;SDS011;57170;43.964;21.262;2023-05-14T10:02:25;6.35;;;4.00;;
69890;SDS011;57170;43.964;21.262;2023-05-14T10:04:53;7.90;;;4.10;;
69890;SDS011;57170;43.964;21.262;2023-05-14T10:07:22;7.40;;;4.35;;
69890;SDS011;57170;43.964;21.262;2023-05-14T10:09:51;7.53;;;5.10;;
69890;SDS011;57170;43.964;21.262;2023-05-14T10:12:18;5.15;;;4.25;;
69890;SDS011;57170;43.964;21.262;2023-05-14T10:14:47;6.47;;;4.95;;
69890;SDS011;57170;43.964;21.262;2023-05-14T10:17:18;6.40;;;3.97;;
69890;SDS011;57170;43.964;21.262;2023-05-14T10:19:52;6.40;;;4.65;;
69890;SDS011;57170;43.964;21.262;2023-05-14T10:22:21;6.15;;;4.55;;
69890;SDS011;57170;43.964;21.262;2023-05-14T10:24:48;5.53;;;4.35;;
69890;SDS011;57170;43.964;21.262;2023-05-14T10:27:17;5.63;;;4.38;;
69890;SDS011;57170;43.964;21.262;2023-05-14T10:29:46;6.47;;;4.68;;
69890;SDS011;57170;43.964;21.262;2023-05-14T10:32:17;6.57;;;4.65;;
69890;SDS011;57170;43.964;21.262;2023-05-14T10:34:44;8.10;;;5.05;;
69890;SDS011;57170;43.964;21.262;2023-05-14T10:37:19;5.53;;;4.55;;
69890;SDS011;57170;43.964;21.262;2023-05-14T10:42:16;5.90;;;4.53;;
69890;SDS011;57170;43.964;21.262;2023-05-14T10:45:02;6.43;;;5.38;;
69890;SDS011;57170;43.964;21.262;2023-05-14T10:47:31;5.53;;;4.50;;
69890;SDS011;57170;43.964;21.262;2023-05-14T10:49:58;6.97;;;4.30;;
69890;SDS011;57170;43.964;21.262;2023-05-14T10:52:24;5.60;;;4.20;;
69890;SDS011;57170;43.964;21.262;2023-05-14T10:57:17;7.47;;;5.22;;
69890;SDS011;57170;43.964;21.262;2023-05-14T10:59:45;5.85;;;5.20;;
69890;SDS011;57170;43.964;21.262;2023-05-14T11:05:05;6.10;;;4.82;;
69890;SDS011;57170;43.964;21.262;2023-05-14T11:07:36;5.60;;;4.57;;
69890;SDS011;57170;43.964;21.262;2023-05-14T11:10:06;7.13;;;4.85;;
69890;SDS011;57170;43.964;21.262;2023-05-14T11:12:33;6.35;;;4.53;;
69890;SDS011;57170;43.964;21.262;2023-05-14T11:15:00;6.13;;;4.65;;
69890;SDS011;57170;43.964;21.262;2023-05-14T11:17:27;10.93;;;4.95;;
69890;SDS011;57170;43.964;21.262;2023-05-14T11:19:54;6.90;;;4.85;;
69890;SDS011;57170;43.964;21.262;2023-05-14T11:22:21;6.45;;;5.60;;
69890;SDS011;57170;43.964;21.262;2023-05-14T11:24:47;6.93;;;5.03;;
69890;SDS011;57170;43.964;21.262;2023-05-14T11:27:13;6.13;;;5.47;;
69890;SDS011;57170;43.964;21.262;2023-05-14T11:29:46;7.53;;;5.80;;
69890;SDS011;57170;43.964;21.262;2023-05-14T11:32:13;9.60;;;6.53;;
69890;SDS011;57170;43.964;21.262;2023-05-14T11:34:40;7.35;;;5.18;;
69890;SDS011;57170;43.964;21.262;2023-05-14T11:37:06;6.28;;;5.25;;
69890;SDS011;57170;43.964;21.262;2023-05-14T11:39:36;6.22;;;5.20;;
69890;SDS011;57170;43.964;21.262;2023-05-14T11:42:02;6.13;;;4.75;;
69890;SDS011;57170;43.964;21.262;2023-05-14T11:44:30;7.25;;;5.20;;
69890;SDS011;57170;43.964;21.262;2023-05-14T11:46:56;6.13;;;4.80;;
69890;SDS011;57170;43.964;21.262;2023-05-14T11:49:23;6.53;;;5.88;;
69890;SDS011;57170;43.964;21.262;2023-05-14T11:51:59;12.50;;;6.18;;
69890;SDS011;57170;43.964;21.262;2023-05-14T11:54:25;8.63;;;6.32;;
69890;SDS011;57170;43.964;21.262;2023-05-14T11:56:53;10.82;;;7.22;;
69890;SDS011;57170;43.964;21.262;2023-05-14T11:59:20;8.32;;;6.85;;
69890;SDS011;57170;43.964;21.262;2023-05-14T12:01:46;7.50;;;6.22;;
69890;SDS011;57170;43.964;21.262;2023-05-14T12:04:12;7.65;;;6.00;;
69890;SDS011;57170;43.964;21.262;2023-05-14T12:06:38;8.18;;;5.80;;
69890;SDS011;57170;43.964;21.262;2023-05-14T12:09:05;9.20;;;6.82;;
69890;SDS011;57170;43.964;21.262;2023-05-14T12:11:32;12.27;;;6.85;;
69890;SDS011;57170;43.964;21.262;2023-05-14T12:14:08;8.07;;;6.90;;
69890;SDS011;57170;43.964;21.262;2023-05-14T12:16:35;9.80;;;6.88;;
69890;SDS011;57170;43.964;21.262;2023-05-14T12:19:01;8.27;;;6.80;;
69890;SDS011;57170;43.964;21.262;2023-05-14T12:21:27;8.10;;;7.30;;
69890;SDS011;57170;43.964;21.262;2023-05-14T12:23:57;10.13;;;7.63;;
69890;SDS011;57170;43.964;21.262;2023-05-14T12:26:24;9.65;;;7.20;;
69890;SDS011;57170;43.964;21.262;2023-05-14T12:28:59;9.80;;;6.93;;
69890;SDS011;57170;43.964;21.262;2023-05-14T12:31:35;7.70;;;6.68;;
69890;SDS011;57170;43.964;21.262;2023-05-14T12:34:01;6.70;;;5.85;;
69890;SDS011;57170;43.964;21.262;2023-05-14T12:36:28;8.35;;;7.20;;
69890;SDS011;57170;43.964;21.262;2023-05-14T12:38:59;7.97;;;7.18;;
69890;SDS011;57170;43.964;21.262;2023-05-14T12:41:27;8.82;;;7.47;;
69890;SDS011;57170;43.964;21.262;2023-05-14T12:43:53;7.80;;;6.72;;
69890;SDS011;57170;43.964;21.262;2023-05-14T12:46:20;9.98;;;7.53;;
69890;SDS011;57170;43.964;21.262;2023-05-14T12:48:46;11.07;;;7.20;;
69890;SDS011;57170;43.964;21.262;2023-05-14T12:51:12;9.30;;;7.65;;
69890;SDS011;57170;43.964;21.262;2023-05-14T12:53:38;7.80;;;6.82;;
69890;SDS011;57170;43.964;21.262;2023-05-14T12:56:05;14.02;;;7.90;;
69890;SDS011;57170;43.964;21.262;2023-05-14T12:58:31;11.13;;;7.78;;
69890;SDS011;57170;43.964;21.262;2023-05-14T13:00:57;10.95;;;7.30;;
69890;SDS011;57170;43.964;21.262;2023-05-14T13:03:23;11.88;;;8.68;;
69890;SDS011;57170;43.964;21.262;2023-05-14T13:05:50;10.35;;;6.95;;
69890;SDS011;57170;43.964;21.262;2023-05-14T13:08:17;10.27;;;7.50;;
69890;SDS011;57170;43.964;21.262;2023-05-14T13:10:45;10.52;;;8.07;;
69890;SDS011;57170;43.964;21.262;2023-05-14T13:13:13;9.50;;;8.48;;
69890;SDS011;57170;43.964;21.262;2023-05-14T13:15:39;11.80;;;8.52;;
69890;SDS011;57170;43.964;21.262;2023-05-14T13:18:05;13.20;;;8.02;;
69890;SDS011;57170;43.964;21.262;2023-05-14T13:20:32;11.10;;;8.75;;
69890;SDS011;57170;43.964;21.262;2023-05-14T13:22:58;9.82;;;8.35;;
69890;SDS011;57170;43.964;21.262;2023-05-14T13:25:25;10.88;;;8.05;;
69890;SDS011;57170;43.964;21.262;2023-05-14T13:27:51;10.85;;;8.85;;
69890;SDS011;57170;43.964;21.262;2023-05-14T13:30:17;8.73;;;7.47;;
69890;SDS011;57170;43.964;21.262;2023-05-14T13:32:43;9.90;;;7.45;;
69890;SDS011;57170;43.964;21.262;2023-05-14T13:35:10;10.73;;;8.75;;
69890;SDS011;57170;43.964;21.262;2023-05-14T13:37:36;11.23;;;8.75;;
69890;SDS011;57170;43.964;21.262;2023-05-14T13:40:03;8.93;;;7.80;;
69890;SDS011;57170;43.964;21.262;2023-05-14T13:42:31;9.50;;;7.90;;
69890;SDS011;57170;43.964;21.262;2023-05-14T13:44:57;10.65;;;8.52;;
69890;SDS011;57170;43.964;21.262;2023-05-14T13:47:24;10.10;;;8.27;;
69890;SDS011;57170;43.964;21.262;2023-05-14T13:49:51;9.38;;;7.72;;
69890;SDS011;57170;43.964;21.262;2023-05-14T13:52:17;11.85;;;9.98;;
69890;SDS011;57170;43.964;21.262;2023-05-14T13:54:43;13.00;;;10.50;;
69890;SDS011;57170;43.964;21.262;2023-05-14T13:57:09;12.90;;;9.60;;
69890;SDS011;57170;43.964;21.262;2023-05-14T13:59:35;10.02;;;8.55;;
69890;SDS011;57170;43.964;21.262;2023-05-14T14:02:01;12.35;;;8.68;;
69890;SDS011;57170;43.964;21.262;2023-05-14T14:04:27;10.65;;;7.82;;
69890;SDS011;57170;43.964;21.262;2023-05-14T14:06:54;11.55;;;8.55;;
69890;SDS011;57170;43.964;21.262;2023-05-14T14:09:20;11.93;;;8.90;;
69890;SDS011;57170;43.964;21.262;2023-05-14T14:11:47;9.88;;;8.85;;
69890;SDS011;57170;43.964;21.262;2023-05-14T14:14:13;11.30;;;8.75;;
69890;SDS011;57170;43.964;21.262;2023-05-14T14:16:39;10.75;;;9.68;;
69890;SDS011;57170;43.964;21.262;2023-05-14T14:19:06;12.30;;;9.55;;
69890;SDS011;57170;43.964;21.262;2023-05-14T14:21:32;12.70;;;10.00;;
69890;SDS011;57170;43.964;21.262;2023-05-14T14:23:59;14.30;;;10.52;;
69890;SDS011;57170;43.964;21.262;2023-05-14T14:26:25;12.05;;;9.93;;
69890;SDS011;57170;43.964;21.262;2023-05-14T14:28:54;11.63;;;10.40;;
69890;SDS011;57170;43.964;21.262;2023-05-14T14:31:21;11.90;;;9.82;;
69890;SDS011;57170;43.964;21.262;2023-05-14T14:33:47;11.82;;;9.68;;
69890;SDS011;57170;43.964;21.262;2023-05-14T14:36:13;11.27;;;10.07;;
69890;SDS011;57170;43.964;21.262;2023-05-14T14:38:39;13.00;;;9.40;;
69890;SDS011;57170;43.964;21.262;2023-05-14T14:41:05;11.65;;;10.40;;
69890;SDS011;57170;43.964;21.262;2023-05-14T14:43:41;11.20;;;9.48;;
69890;SDS011;57170;43.964;21.262;2023-05-14T14:46:07;12.02;;;8.82;;
69890;SDS011;57170;43.964;21.262;2023-05-14T14:48:34;10.50;;;9.40;;
69890;SDS011;57170;43.964;21.262;2023-05-14T14:51:05;13.57;;;10.07;;